Pagina principale
METAR-TAF:

METAR-TAF

Aeroporti :

Aeroporto di New York-Stewart

Newburgh, New York, Stati Uniti

latitudine: 41-30N, longitudine: 074-06W, altezza: 150 m

Osservazione

Il bollettino è stato emesso 19 minuti fa, alle 07:45 UTC
Vento 5 kt da direzioni variabili
Temperature 15°C
Umidità 82%
Pressione 1018 hPa
Visibilità: 16.1 km
Cielo sereno

METAR: KSWF 240745Z VRB05KT 10SM SKC 15/12 A3005

Ora: 04:04 (08:04 UTC)

Previsione

Il bollettino è stato emesso 2 ore e 42 minuti fa, alle 05:22 UTC
Previsione valida dal 24 alle 06 UTC al 25 alle 12 UTC
Vento 5 kt da ovest
Visibilità: 10 km
Cielo sereno
A partire da 24 alle 1500 UTC
Vento 10 kt da nord
Visibilità: 10 km
Cielo sereno
A partire da 24 alle 2200 UTC
Vento 4 kt da direzioni variabili
Visibilità: 10 km
Cielo sereno

TAF: KSWF 240522Z 2406/2512 28005KT P6SM SKC FM241500 35010KT P6SM SKC FM242200 VRB04KT P6SM SKC AMD NOT SKED

Osservazioni e previsioni meteorologiche di più di 4000 aeroporti (messaggi METAR e TAF).

Le stazioni disponibili sono rappresentate dai dischi gialli e rossi sulla carta.

Puntare il mouse per vedere il nome della stazione.

Clicca sopra per visualizzare le osservazioni e previsioni meteorologiche.

Per cambiare la mappa : fare clic sui pulsanti verdi con una croce nera per ingrandire, il pulsante verde con un trattino per diminuire, o sulla freccia verde per le mappe adiacenti.


METAR-TAF: